Time;durP1;ratioP1;P1;durP2;ratioP2;P2;SDS_P1;SDS_P2;PMS_P1;PMS_P2;Temp;Humidity;BMP_temperature;BMP_pressure;BME280_temperature;BME280_humidity;BME280_pressure;Samples;Min_cycle;Max_cycle;Signal;HPM_P1;HPM_P2
2022/05/02 00:00:55;;;;;;;22.40;6.43;;;14.70;99.90;;;;;;5076120;28;20212;-74
2022/05/02 00:03:22;;;;;;;12.70;5.63;;;14.70;99.90;;;;;;5043815;28;20270;-74
2022/05/02 00:05:51;;;;;;;22.50;5.10;;;14.80;99.90;;;;;;5041051;28;20673;-74
2022/05/02 00:08:21;;;;;;;11.90;5.13;;;14.80;99.90;;;;;;5025520;28;20374;-74
2022/05/02 00:10:50;;;;;;;16.13;4.97;;;14.90;99.90;;;;;;5060998;28;20199;-74
2022/05/02 00:13:24;;;;;;;11.53;5.40;;;15.00;99.90;;;;;;5047608;28;20226;-74
2022/05/02 00:15:51;;;;;;;14.27;5.47;;;15.10;99.90;;;;;;5046152;28;20198;-74
2022/05/02 00:18:19;;;;;;;13.40;5.33;;;15.10;99.90;;;;;;5056873;28;20190;-74
2022/05/02 00:20:47;;;;;;;17.60;5.50;;;15.20;99.90;;;;;;5045662;28;20227;-73
2022/05/02 00:23:15;;;;;;;13.87;5.47;;;15.30;99.90;;;;;;5076829;28;20187;-74
2022/05/02 00:25:44;;;;;;;10.43;5.43;;;15.40;99.90;;;;;;5033636;28;20192;-74
2022/05/02 00:28:15;;;;;;;17.17;5.47;;;15.40;99.90;;;;;;5041098;28;20180;-74
2022/05/02 00:30:44;;;;;;;15.67;5.50;;;15.40;99.90;;;;;;5047088;28;20244;-74
2022/05/02 00:33:12;;;;;;;11.63;5.30;;;15.50;99.90;;;;;;5041254;28;20369;-74
2022/05/02 00:35:40;;;;;;;15.03;5.87;;;15.50;99.90;;;;;;5043913;28;20708;-74
2022/05/02 00:38:10;;;;;;;10.43;4.87;;;15.50;99.90;;;;;;5046384;28;20192;-74
2022/05/02 00:40:42;;;;;;;16.47;5.40;;;15.50;99.90;;;;;;5044050;28;20191;-74
2022/05/02 00:43:09;;;;;;;13.87;5.27;;;15.60;99.90;;;;;;5044700;28;20956;-74
2022/05/02 00:45:38;;;;;;;12.23;5.17;;;15.60;99.90;;;;;;5038641;28;20195;-75
2022/05/02 00:48:06;;;;;;;23.57;5.57;;;15.70;99.90;;;;;;5041771;28;20742;-73
2022/05/02 00:50:36;;;;;;;21.83;5.40;;;15.70;99.90;;;;;;5042129;28;20252;-74
2022/05/02 00:53:05;;;;;;;17.87;5.50;;;15.70;99.90;;;;;;5040111;28;20595;-74
2022/05/02 00:55:32;;;;;;;16.50;6.17;;;15.70;99.90;;;;;;5040548;28;20242;-74
2022/05/02 00:58:01;;;;;;;15.83;5.87;;;15.60;99.90;;;;;;5067741;28;20600;-74
2022/05/02 01:00:34;;;;;;;14.50;5.83;;;15.60;99.90;;;;;;5047855;28;20830;-74
2022/05/02 01:03:02;;;;;;;13.87;5.67;;;15.50;99.90;;;;;;5044194;28;20187;-74
2022/05/02 01:05:29;;;;;;;13.67;5.47;;;15.50;99.90;;;;;;5059764;28;20274;-74
2022/05/02 01:07:56;;;;;;;14.17;5.87;;;15.50;99.90;;;;;;5050249;28;20652;-73
2022/05/02 01:10:26;;;;;;;11.23;5.60;;;15.50;99.90;;;;;;5046112;28;20192;-74
2022/05/02 01:12:52;;;;;;;11.30;5.63;;;15.50;99.90;;;;;;5041167;28;20523;-73
2022/05/02 01:15:20;;;;;;;13.80;5.53;;;15.40;99.90;;;;;;5038680;28;20260;-74
2022/05/02 01:17:46;;;;;;;14.40;5.50;;;15.40;99.90;;;;;;5038221;28;20249;-74
2022/05/02 01:20:16;;;;;;;14.47;6.07;;;15.30;99.90;;;;;;5041031;28;20184;-74
2022/05/02 01:22:45;;;;;;;21.60;5.90;;;15.40;99.90;;;;;;5055618;28;20183;-74
2022/05/02 01:25:12;;;;;;;14.10;5.70;;;15.40;99.90;;;;;;5044801;28;20289;-74
2022/05/02 01:27:38;;;;;;;14.83;6.17;;;15.40;99.90;;;;;;5072755;28;21129;-74
2022/05/02 01:30:06;;;;;;;15.93;5.60;;;15.40;99.90;;;;;;5047492;28;20198;-74
2022/05/02 01:32:32;;;;;;;14.40;6.13;;;15.50;99.90;;;;;;5058387;28;20234;-74
2022/05/02 01:34:59;;;;;;;13.43;6.03;;;15.40;99.90;;;;;;5051795;28;20301;-74
2022/05/02 01:37:29;;;;;;;18.07;6.00;;;15.40;99.90;;;;;;5071402;28;20611;-74
2022/05/02 01:39:55;;;;;;;13.07;5.40;;;15.50;99.90;;;;;;5038142;28;20545;-74
2022/05/02 01:42:22;;;;;;;14.73;5.60;;;15.50;99.90;;;;;;5076408;28;20774;-74
2022/05/02 01:44:49;;;;;;;19.93;6.43;;;15.50;99.90;;;;;;5042204;28;20615;-74
2022/05/02 01:47:16;;;;;;;17.10;6.07;;;15.50;99.90;;;;;;5080244;28;20183;-74
2022/05/02 01:49:42;;;;;;;14.13;5.13;;;15.60;99.90;;;;;;5037508;28;20241;-74
2022/05/02 01:52:09;;;;;;;12.50;5.60;;;15.60;99.90;;;;;;5047625;28;20211;-75
2022/05/02 01:54:38;;;;;;;13.30;5.40;;;15.70;99.90;;;;;;5068262;28;20265;-74
2022/05/02 01:57:05;;;;;;;13.37;5.87;;;15.70;99.90;;;;;;5043907;28;20620;-74
2022/05/02 01:59:34;;;;;;;13.27;5.90;;;15.60;99.90;;;;;;5039528;28;20183;-73
2022/05/02 02:02:01;;;;;;;10.80;5.60;;;15.60;99.90;;;;;;5057772;28;20808;-74
2022/05/02 02:07:14;;;;;;;16.47;5.80;;;15.70;99.90;;;;;;5045624;28;20596;-74
2022/05/02 02:09:43;;;;;;;11.80;6.03;;;15.70;99.90;;;;;;5029497;28;20192;-74
2022/05/02 02:12:12;;;;;;;12.17;5.93;;;15.60;99.90;;;;;;5041900;28;20227;-74
2022/05/02 02:14:39;;;;;;;16.43;6.20;;;15.60;99.90;;;;;;5041621;28;20951;-74
2022/05/02 02:17:05;;;;;;;13.40;5.80;;;15.60;99.90;;;;;;5063545;28;20211;-74
2022/05/02 02:19:32;;;;;;;9.90;5.60;;;15.60;99.90;;;;;;5041266;28;20279;-74
2022/05/02 02:22:16;;;;;;;12.10;6.27;;;15.60;99.90;;;;;;5046898;28;20188;-74
2022/05/02 02:24:46;;;;;;;11.93;6.30;;;15.50;99.90;;;;;;5032387;28;20668;-74
2022/05/02 02:27:13;;;;;;;12.47;5.77;;;15.50;99.90;;;;;;5035884;28;20989;-74
2022/05/02 02:29:39;;;;;;;9.87;5.80;;;15.50;99.90;;;;;;5033674;28;20199;-74
2022/05/02 02:32:13;;;;;;;13.10;6.60;;;15.50;99.90;;;;;;5046913;28;20549;-73
2022/05/02 02:34:40;;;;;;;13.77;6.47;;;15.50;99.90;;;;;;5042543;28;20215;-74
2022/05/02 02:37:09;;;;;;;14.40;6.03;;;15.40;99.90;;;;;;5039894;28;20225;-74
2022/05/02 02:39:36;;;;;;;11.57;6.13;;;15.30;99.90;;;;;;5037565;28;20817;-74
2022/05/02 02:42:03;;;;;;;12.10;6.13;;;15.30;99.90;;;;;;5045904;28;20192;-74
2022/05/02 02:44:29;;;;;;;14.00;6.10;;;15.30;99.90;;;;;;5039438;28;20310;-74
2022/05/02 02:46:56;;;;;;;11.13;5.93;;;15.20;99.90;;;;;;5059181;28;20329;-74
2022/05/02 02:49:25;;;;;;;12.10;5.87;;;15.20;99.90;;;;;;5040080;28;20199;-74
2022/05/02 02:51:51;;;;;;;12.00;5.90;;;15.30;99.90;;;;;;5040735;28;20214;-74
2022/05/02 02:54:18;;;;;;;12.37;6.40;;;15.30;99.90;;;;;;5060847;28;21931;-74
2022/05/02 02:56:44;;;;;;;12.57;5.80;;;15.20;99.90;;;;;;5044268;28;20191;-74
2022/05/02 02:59:14;;;;;;;15.50;6.60;;;15.10;99.90;;;;;;5069539;28;20188;-74
2022/05/02 03:01:47;;;;;;;10.93;5.70;;;15.10;99.90;;;;;;5036016;28;20541;-74
2022/05/02 03:06:59;;;;;;;18.33;6.43;;;15.10;99.90;;;;;;5045609;28;20223;-74
2022/05/02 03:09:26;;;;;;;17.67;6.83;;;15.10;99.90;;;;;;5046355;28;20184;-74
2022/05/02 03:11:54;;;;;;;12.87;5.67;;;15.10;99.90;;;;;;5039609;28;20644;-74
2022/05/02 03:14:21;;;;;;;14.70;6.00;;;15.10;99.90;;;;;;5043464;28;20711;-74
2022/05/02 03:16:50;;;;;;;14.00;5.53;;;15.20;99.90;;;;;;5048136;28;20184;-74
2022/05/02 03:19:18;;;;;;;17.33;6.03;;;15.20;99.90;;;;;;5045130;28;20184;-74
2022/05/02 03:21:45;;;;;;;15.37;5.80;;;15.20;99.90;;;;;;5038038;28;20200;-74
2022/05/02 03:24:11;;;;;;;14.43;5.70;;;15.30;99.90;;;;;;5041859;28;20211;-73
2022/05/02 03:26:39;;;;;;;15.63;5.60;;;15.30;99.90;;;;;;5044381;28;20970;-74
2022/05/02 03:29:05;;;;;;;14.83;6.00;;;15.20;99.90;;;;;;5046390;28;20756;-74
2022/05/02 03:31:32;;;;;;;11.03;5.57;;;15.20;99.90;;;;;;5063803;28;20279;-74
2022/05/02 03:33:58;;;;;;;15.43;5.93;;;15.30;99.90;;;;;;5042742;28;20218;-73
2022/05/02 03:36:26;;;;;;;13.90;5.57;;;15.30;99.90;;;;;;5047800;28;20808;-74
2022/05/02 03:38:53;;;;;;;11.63;5.83;;;15.40;99.90;;;;;;5080444;28;20662;-73
2022/05/02 03:41:19;;;;;;;15.37;6.27;;;15.50;99.90;;;;;;5048223;28;20184;-74
2022/05/02 03:43:46;;;;;;;21.83;6.60;;;15.60;99.90;;;;;;5060254;28;20203;-74
2022/05/02 03:46:12;;;;;;;20.40;6.90;;;15.70;99.90;;;;;;5048835;28;20183;-74
2022/05/02 03:48:44;;;;;;;12.87;6.47;;;15.70;99.90;;;;;;5064635;28;20195;-74
2022/05/02 03:51:11;;;;;;;15.50;6.27;;;15.80;99.90;;;;;;5044420;28;20209;-74
2022/05/02 03:53:38;;;;;;;12.33;6.40;;;15.90;99.90;;;;;;5048154;28;20978;-74
2022/05/02 03:56:08;;;;;;;16.33;5.97;;;16.00;99.90;;;;;;5045087;28;20186;-74
2022/05/02 03:58:36;;;;;;;11.90;6.30;;;16.10;99.90;;;;;;5045801;28;20263;-74
2022/05/02 04:01:04;;;;;;;11.80;5.70;;;16.20;99.90;;;;;;5041466;28;20243;-74
2022/05/02 04:03:30;;;;;;;14.60;6.27;;;16.20;99.90;;;;;;5046387;28;20192;-74
2022/05/02 04:05:57;;;;;;;8.03;5.63;;;16.30;99.90;;;;;;5040374;28;20252;-74
2022/05/02 04:08:26;;;;;;;11.80;5.73;;;16.40;99.90;;;;;;5060218;28;20270;-74
2022/05/02 04:10:55;;;;;;;14.33;6.20;;;16.40;99.90;;;;;;5048400;28;20248;-73
2022/05/02 04:13:23;;;;;;;17.67;6.10;;;16.50;99.90;;;;;;5065150;28;20580;-74
2022/05/02 04:15:49;;;;;;;12.30;5.90;;;16.60;99.90;;;;;;5074732;28;20226;-74
2022/05/02 04:18:16;;;;;;;11.67;5.53;;;16.60;99.90;;;;;;5044559;28;20189;-74
2022/05/02 04:20:43;;;;;;;14.97;6.23;;;16.60;99.90;;;;;;5047398;28;20191;-74
2022/05/02 04:23:20;;;;;;;15.73;6.07;;;16.70;99.90;;;;;;5050455;28;20659;-74
2022/05/02 04:25:50;;;;;;;17.57;5.97;;;16.70;99.90;;;;;;5057666;28;20191;-74
2022/05/02 04:28:16;;;;;;;12.43;6.30;;;16.70;99.90;;;;;;5051040;28;20666;-74
2022/05/02 04:30:43;;;;;;;11.63;6.00;;;16.70;99.90;;;;;;5028778;28;20934;-74
2022/05/02 04:33:12;;;;;;;15.73;6.13;;;16.80;99.90;;;;;;5046950;28;20211;-74
2022/05/02 04:35:39;;;;;;;10.53;5.90;;;16.80;99.90;;;;;;5039212;28;20223;-74
2022/05/02 04:38:06;;;;;;;11.50;6.10;;;16.90;99.90;;;;;;5021976;28;20902;-74
2022/05/02 04:40:33;;;;;;;7.83;5.47;;;16.90;99.90;;;;;;5013062;28;20207;-74
2022/05/02 04:43:00;;;;;;;9.70;5.80;;;17.10;99.90;;;;;;5039778;28;20567;-74
2022/05/02 04:45:26;;;;;;;15.57;5.87;;;17.20;99.90;;;;;;5052883;28;20203;-74
2022/05/02 04:47:53;;;;;;;14.40;6.40;;;17.20;99.90;;;;;;5024247;28;20199;-74
2022/05/02 04:50:20;;;;;;;13.10;6.17;;;17.30;99.90;;;;;;5038396;28;20623;-74
2022/05/02 04:52:46;;;;;;;13.30;5.60;;;17.30;99.90;;;;;;5019218;28;20274;-74
2022/05/02 04:55:13;;;;;;;14.37;5.50;;;17.40;99.90;;;;;;5042713;28;20223;-74
2022/05/02 04:57:39;;;;;;;12.10;5.57;;;17.50;99.90;;;;;;5039260;28;20305;-74
2022/05/02 05:00:07;;;;;;;13.60;5.63;;;17.70;99.90;;;;;;5054052;28;20211;-74
2022/05/02 05:02:36;;;;;;;15.43;5.70;;;17.90;99.90;;;;;;5052545;28;20624;-74
2022/05/02 05:05:03;;;;;;;14.30;5.80;;;18.00;99.90;;;;;;5049763;28;20665;-74
2022/05/02 05:07:31;;;;;;;17.20;5.97;;;18.10;99.90;;;;;;5037582;28;20204;-74
2022/05/02 05:09:58;;;;;;;12.33;5.50;;;18.10;99.90;;;;;;5038426;28;20188;-74
2022/05/02 05:12:59;;;;;;;11.93;5.80;;;18.10;99.90;;;;;;5050288;28;20269;-74
2022/05/02 05:19:02;;;;;;;14.10;5.77;;;18.10;99.90;;;;;;5045831;28;20191;-73
2022/05/02 05:21:50;;;;;;;12.20;5.20;;;18.10;99.90;;;;;;5008030;28;20336;-74
2022/05/02 05:25:05;;;;;;;9.50;5.03;;;18.10;99.90;;;;;;5041493;28;20196;-74
2022/05/02 05:28:09;;;;;;;11.80;5.23;;;18.20;99.90;;;;;;5041513;28;20271;-74
2022/05/02 05:30:45;;;;;;;9.90;4.97;;;18.20;99.90;;;;;;5053721;28;20524;-74
2022/05/02 05:34:15;;;;;;;17.83;5.43;;;18.30;99.90;;;;;;5056780;28;20207;-74
2022/05/02 05:37:34;;;;;;;11.97;4.73;;;18.30;99.90;;;;;;5016337;28;20204;-73
2022/05/02 05:40:44;;;;;;;16.43;4.90;;;18.30;99.90;;;;;;5035256;28;20645;-73
2022/05/02 05:44:03;;;;;;;11.57;5.03;;;18.30;99.90;;;;;;5030005;28;20200;-73
2022/05/02 05:47:21;;;;;;;13.97;5.57;;;18.40;99.90;;;;;;4984571;28;20201;-73
2022/05/02 05:50:18;;;;;;;13.57;5.47;;;18.50;99.90;;;;;;4992802;28;20195;-73
2022/05/02 05:53:26;;;;;;;13.90;5.83;;;18.50;99.90;;;;;;5047539;28;20195;-74
2022/05/02 05:56:37;;;;;;;12.93;5.73;;;18.60;99.90;;;;;;5059297;28;20205;-74
2022/05/02 05:59:17;;;;;;;14.37;5.30;;;18.70;99.90;;;;;;5034930;28;20199;-73
2022/05/02 06:01:55;;;;;;;18.80;5.83;;;18.80;99.90;;;;;;5048920;28;20184;-73
2022/05/02 06:04:26;;;;;;;15.67;5.57;;;18.80;99.90;;;;;;5032978;28;20669;-73
2022/05/02 06:06:54;;;;;;;20.43;6.97;;;18.80;99.90;;;;;;5038707;28;20667;-73
2022/05/02 06:09:22;;;;;;;18.10;6.17;;;18.80;99.90;;;;;;5037333;28;20876;-73
2022/05/02 06:11:55;;;;;;;17.70;6.00;;;18.80;99.90;;;;;;5040809;28;20613;-73
2022/05/02 06:14:27;;;;;;;14.13;6.10;;;18.90;99.90;;;;;;5043228;28;20203;-73
2022/05/02 06:19:50;;;;;;;15.23;5.93;;;19.00;99.90;;;;;;5080362;28;20175;-73
2022/05/02 06:22:18;;;;;;;17.57;6.30;;;19.10;99.90;;;;;;5025421;28;20270;-73
2022/05/02 06:24:48;;;;;;;19.33;6.07;;;19.20;99.90;;;;;;5038763;28;20200;-73
2022/05/02 06:27:15;;;;;;;16.50;5.63;;;19.30;99.90;;;;;;5049121;28;20194;-73
2022/05/02 06:29:42;;;;;;;19.10;6.67;;;19.40;99.90;;;;;;5047975;28;20187;-73
2022/05/02 06:32:19;;;;;;;19.73;6.70;;;19.40;99.90;;;;;;5043114;28;20215;-73
2022/05/02 06:34:46;;;;;;;22.87;5.70;;;19.50;99.90;;;;;;5047530;28;20257;-73
2022/05/02 06:37:45;;;;;;;18.03;5.90;;;19.60;99.90;;;;;;5034536;28;20191;-73
2022/05/02 06:40:33;;;;;;;18.73;5.93;;;19.70;99.90;;;;;;5020308;28;20182;-73
2022/05/02 06:43:30;;;;;;;19.53;5.73;;;19.80;99.90;;;;;;5038238;28;20187;-73
2022/05/02 06:46:18;;;;;;;13.70;5.37;;;19.80;99.90;;;;;;5056774;28;20223;-74
2022/05/02 06:49:08;;;;;;;15.80;5.20;;;20.00;99.90;;;;;;5055027;28;20955;-75
2022/05/02 06:51:42;;;;;;;12.77;5.23;;;20.10;99.90;;;;;;5039799;28;20195;-74
2022/05/02 06:54:19;;;;;;;14.57;4.97;;;20.10;99.90;;;;;;5031943;28;20211;-74
2022/05/02 06:57:16;;;;;;;18.40;5.90;;;20.20;99.90;;;;;;5040155;28;20187;-74
2022/05/02 07:00:06;;;;;;;21.50;5.80;;;20.30;99.90;;;;;;5060981;28;20203;-72
2022/05/02 07:03:20;;;;;;;14.17;5.20;;;20.20;99.90;;;;;;5063569;28;20192;-74
2022/05/02 07:06:06;;;;;;;18.63;5.60;;;20.20;99.90;;;;;;5041397;28;20261;-74
2022/05/02 07:08:57;;;;;;;18.10;5.60;;;20.20;99.90;;;;;;5041684;28;20230;-75
2022/05/02 07:11:44;;;;;;;16.70;6.37;;;20.20;99.90;;;;;;5040682;28;21032;-74
2022/05/02 07:14:26;;;;;;;18.73;6.63;;;20.20;99.90;;;;;;5035544;28;20828;-74
2022/05/02 07:17:02;;;;;;;19.43;7.03;;;20.10;99.90;;;;;;5034579;28;20310;-74
2022/05/02 07:20:07;;;;;;;15.50;7.03;;;20.10;99.90;;;;;;5029614;28;20213;-74
2022/05/02 07:22:42;;;;;;;11.60;6.37;;;20.10;99.90;;;;;;5037095;28;20187;-75
2022/05/02 07:25:19;;;;;;;15.43;5.77;;;20.20;99.90;;;;;;5031999;28;20194;-74
2022/05/02 07:28:18;;;;;;;13.67;6.03;;;20.20;99.90;;;;;;5035747;28;20195;-75
2022/05/02 07:30:47;;;;;;;21.13;6.23;;;20.20;99.90;;;;;;5069346;28;20712;-74
2022/05/02 07:33:18;;;;;;;16.73;6.07;;;20.30;99.90;;;;;;5036126;28;20218;-75
2022/05/02 07:35:52;;;;;;;13.97;6.20;;;20.40;99.90;;;;;;5034771;28;20525;-72
2022/05/02 07:38:21;;;;;;;27.30;7.67;;;20.50;99.90;;;;;;5062684;28;20214;-74
2022/05/02 07:43:42;;;;;;;15.47;7.23;;;20.50;99.90;;;;;;5046588;28;20183;-74
2022/05/02 07:46:12;;;;;;;21.50;7.03;;;20.50;99.90;;;;;;5039383;28;20195;-72
2022/05/02 07:48:50;;;;;;;17.33;6.30;;;20.40;99.90;;;;;;5027854;28;20196;-72
2022/05/02 07:51:22;;;;;;;15.23;6.63;;;20.40;99.90;;;;;;5060135;28;20635;-74
2022/05/02 07:53:53;;;;;;;20.50;8.23;;;20.50;99.90;;;;;;5030685;28;20222;-75
2022/05/02 07:56:26;;;;;;;19.43;8.17;;;20.60;99.90;;;;;;5032000;28;20258;-75
2022/05/02 07:58:55;;;;;;;22.63;7.40;;;20.60;99.90;;;;;;5063022;28;20216;-75
2022/05/02 08:01:27;;;;;;;22.80;8.43;;;20.40;99.90;;;;;;5040558;28;20286;-76
2022/05/02 08:03:55;;;;;;;25.27;8.43;;;20.30;99.90;;;;;;5075579;28;20636;-75
2022/05/02 08:06:57;;;;;;;16.67;7.60;;;20.30;99.90;;;;;;5045165;28;20274;-75
2022/05/02 08:10:18;;;;;;;17.50;7.70;;;20.10;99.90;;;;;;5041415;28;20282;-75
2022/05/02 08:13:31;;;;;;;19.37;7.33;;;20.00;99.90;;;;;;5046472;28;20207;-75
2022/05/02 08:16:32;;;;;;;18.27;8.17;;;19.90;99.90;;;;;;5020546;28;20210;-75
2022/05/02 08:19:36;;;;;;;18.23;7.27;;;19.90;99.90;;;;;;5069623;28;20455;-75
2022/05/02 08:29:27;;;;;;;16.03;8.07;;;19.60;99.90;;;;;;5033696;28;20192;-75
2022/05/02 08:32:11;;;;;;;14.97;7.40;;;19.50;99.90;;;;;;5024036;28;20307;-74
2022/05/02 08:34:52;;;;;;;21.57;8.40;;;19.40;99.90;;;;;;5033264;28;20238;-75
2022/05/02 08:37:50;;;;;;;24.23;8.50;;;19.40;99.90;;;;;;5031518;28;20195;-74
2022/05/02 08:40:28;;;;;;;13.33;7.63;;;19.30;99.90;;;;;;5046382;28;20548;-75
2022/05/02 08:43:39;;;;;;;14.43;8.20;;;19.30;99.90;;;;;;5042314;28;20209;-75
2022/05/02 08:46:18;;;;;;;17.80;8.33;;;19.30;99.90;;;;;;5038238;28;20237;-75
2022/05/02 08:49:33;;;;;;;19.90;9.27;;;19.30;99.90;;;;;;5034049;28;20636;-74
2022/05/02 08:52:33;;;;;;;22.97;9.90;;;19.30;99.90;;;;;;5009744;28;20196;-75
2022/05/02 08:56:02;;;;;;;15.93;8.20;;;19.30;99.90;;;;;;5015493;28;20675;-74
2022/05/02 08:58:51;;;;;;;19.63;9.00;;;19.40;99.90;;;;;;4992741;28;20660;-75
2022/05/02 09:01:45;;;;;;;14.90;7.67;;;19.50;99.90;;;;;;5033996;28;20680;-75
2022/05/02 09:04:18;;;;;;;16.90;7.77;;;19.50;99.90;;;;;;5026913;28;20633;-75
2022/05/02 09:07:06;;;;;;;15.93;7.80;;;19.50;99.90;;;;;;5025265;28;20935;-75
2022/05/02 09:09:58;;;;;;;17.20;8.70;;;19.60;99.90;;;;;;5028083;28;20245;-74
2022/05/02 09:12:56;;;;;;;24.13;10.57;;;19.70;99.90;;;;;;5041856;28;20662;-75
2022/05/02 09:15:48;;;;;;;29.50;10.63;;;19.80;99.90;;;;;;5025860;28;20248;-75
2022/05/02 09:19:08;;;;;;;20.47;9.37;;;19.80;99.90;;;;;;5049302;28;20179;-75
2022/05/02 09:22:11;;;;;;;19.53;9.03;;;19.90;99.90;;;;;;5006240;28;20601;-75
2022/05/02 09:25:13;;;;;;;21.00;9.27;;;19.90;99.90;;;;;;5026731;28;20199;-75
2022/05/02 09:28:09;;;;;;;23.43;10.30;;;19.90;99.90;;;;;;5023627;28;20199;-74
2022/05/02 09:31:03;;;;;;;23.17;10.50;;;20.00;99.90;;;;;;5027715;28;20630;-76
2022/05/02 09:34:04;;;;;;;20.03;9.30;;;20.20;99.90;;;;;;5060243;28;20940;-75
2022/05/02 09:37:04;;;;;;;20.77;9.47;;;20.40;99.90;;;;;;5028003;28;20210;-75
2022/05/02 09:40:00;;;;;;;21.57;10.87;;;20.70;99.90;;;;;;5056102;28;20192;-75
2022/05/02 09:43:07;;;;;;;26.53;12.50;;;20.80;99.90;;;;;;5019722;28;20188;-75
2022/05/02 09:49:36;;;;;;;28.03;13.10;;;20.70;99.90;;;;;;5027636;28;20180;-75
2022/05/02 09:52:13;;;;;;;29.03;13.00;;;20.70;99.90;;;;;;5025495;28;20188;-75
2022/05/02 09:58:35;;;;;;;32.00;13.80;;;20.50;99.90;;;;;;5042787;28;20587;-75
2022/05/02 10:01:11;;;;;;;33.00;14.63;;;20.30;99.90;;;;;;5017674;28;20198;-75
2022/05/02 10:04:24;;;;;;;27.67;14.97;;;20.20;99.90;;;;;;5058993;28;20195;-75
2022/05/02 10:07:10;;;;;;;31.13;14.87;;;20.20;99.90;;;;;;5051934;28;20203;-75
2022/05/02 10:09:49;;;;;;;22.83;13.63;;;20.30;99.90;;;;;;5058058;28;20196;-75
2022/05/02 10:12:43;;;;;;;30.40;14.23;;;20.50;99.90;;;;;;5028919;28;20191;-75
2022/05/02 10:15:38;;;;;;;32.07;13.30;;;20.50;99.90;;;;;;5046962;28;20251;-75
2022/05/02 10:18:23;;;;;;;25.83;12.73;;;20.50;99.90;;;;;;5062067;28;20203;-75
2022/05/02 10:21:47;;;;;;;27.30;12.23;;;20.60;99.90;;;;;;5026113;28;20199;-73
2022/05/02 10:24:34;;;;;;;25.60;12.00;;;20.70;99.90;;;;;;5026891;28;20200;-75
2022/05/02 10:27:30;;;;;;;25.03;13.70;;;20.90;99.90;;;;;;5069186;28;20860;-72
2022/05/02 10:30:12;;;;;;;30.27;14.20;;;21.20;99.90;;;;;;5037230;28;20302;-72
2022/05/02 10:32:51;;;;;;;31.50;14.03;;;21.10;99.90;;;;;;5044074;28;20229;-72
2022/05/02 10:35:23;;;;;;;28.10;13.57;;;21.10;99.90;;;;;;5039634;28;20225;-73
2022/05/02 10:38:04;;;;;;;28.63;13.80;;;21.00;99.90;;;;;;5061288;28;20179;-75
2022/05/02 10:40:45;;;;;;;24.83;13.63;;;20.80;99.90;;;;;;5040646;28;20196;-75
2022/05/02 10:43:23;;;;;;;30.53;14.23;;;20.80;99.90;;;;;;5037694;28;22157;-75
2022/05/02 10:45:50;;;;;;;32.30;13.67;;;20.70;99.90;;;;;;5044437;28;20194;-73
2022/05/02 10:48:21;;;;;;;28.37;13.47;;;20.60;99.90;;;;;;5065567;28;20635;-75
2022/05/02 10:51:29;;;;;;;32.30;12.97;;;20.60;99.90;;;;;;5040278;28;20309;-75
2022/05/02 10:54:18;;;;;;;32.47;12.97;;;20.50;99.90;;;;;;5037713;28;20330;-75
2022/05/02 10:56:59;;;;;;;29.60;13.90;;;20.50;99.90;;;;;;5040680;28;20199;-75
2022/05/02 10:59:38;;;;;;;31.90;13.13;;;20.40;99.90;;;;;;5038076;28;20238;-75
2022/05/02 11:02:35;;;;;;;28.30;12.83;;;20.40;99.90;;;;;;5028276;28;20294;-73
2022/05/02 11:05:20;;;;;;;34.87;13.43;;;20.40;99.90;;;;;;5064605;28;20564;-74
2022/05/02 11:08:07;;;;;;;31.17;13.73;;;20.30;99.90;;;;;;5042442;28;20202;-74
2022/05/02 11:10:56;;;;;;;32.87;12.77;;;20.20;99.90;;;;;;5072714;28;21243;-73
2022/05/02 11:13:55;;;;;;;31.60;14.80;;;20.10;99.90;;;;;;5028481;28;20193;-73
2022/05/02 11:16:51;;;;;;;36.23;14.23;;;20.10;99.90;;;;;;5031098;28;20195;-75
2022/05/02 11:22:40;;;;;;;37.20;16.60;;;19.80;99.90;;;;;;5024483;28;20648;-73
2022/05/02 11:25:28;;;;;;;36.50;17.80;;;19.60;99.90;;;;;;5023504;28;20283;-74
2022/05/02 11:28:22;;;;;;;45.80;17.93;;;19.50;99.90;;;;;;5040909;28;20306;-73
2022/05/02 11:31:40;;;;;;;42.80;17.73;;;19.40;99.90;;;;;;5029436;28;20234;-73
2022/05/02 11:34:43;;;;;;;44.60;17.57;;;19.30;99.90;;;;;;5029283;28;20227;-73
2022/05/02 11:37:44;;;;;;;38.77;17.83;;;19.10;99.90;;;;;;5030421;28;20299;-73
2022/05/02 11:40:14;;;;;;;37.63;17.10;;;19.10;99.90;;;;;;5059051;28;20241;-75
2022/05/02 11:42:49;;;;;;;41.77;18.27;;;19.00;99.90;;;;;;5048285;28;20221;-74
2022/05/02 11:45:24;;;;;;;40.83;17.33;;;19.00;99.90;;;;;;5030889;28;20214;-74
2022/05/02 11:48:22;;;;;;;37.00;15.57;;;19.00;99.90;;;;;;5036305;28;20199;-73
2022/05/02 11:50:56;;;;;;;41.43;16.40;;;19.00;99.90;;;;;;5036234;28;20193;-73
2022/05/02 11:53:33;;;;;;;37.97;15.47;;;19.20;99.90;;;;;;5025655;28;20204;-74
2022/05/02 11:56:06;;;;;;;30.40;15.03;;;19.20;99.90;;;;;;5030022;28;20187;-73
2022/05/02 11:58:46;;;;;;;48.97;15.73;;;19.20;99.90;;;;;;5061468;28;20941;-73
2022/05/02 12:01:27;;;;;;;29.43;14.60;;;19.30;99.90;;;;;;5031247;28;21284;-73
2022/05/02 12:04:07;;;;;;;36.13;16.03;;;19.40;99.90;;;;;;5060058;28;20195;-73
2022/05/02 12:07:01;;;;;;;49.40;17.57;;;19.40;99.90;;;;;;5026537;28;20196;-73
2022/05/02 12:09:34;;;;;;;45.57;16.17;;;19.40;99.90;;;;;;5028144;28;20189;-72
2022/05/02 12:12:09;;;;;;;44.67;17.63;;;19.40;99.90;;;;;;5030596;28;20791;-72
2022/05/02 12:14:37;;;;;;;37.33;16.60;;;19.40;99.90;;;;;;5013615;28;20592;-72
2022/05/02 12:17:12;;;;;;;32.13;17.13;;;19.40;99.90;;;;;;5027148;28;20275;-73
2022/05/02 12:19:42;;;;;;;34.27;16.53;;;19.30;99.90;;;;;;5046914;28;20969;-73
2022/05/02 12:22:22;;;;;;;56.47;19.80;;;19.30;99.90;;;;;;5031297;28;20195;-72
2022/05/02 12:24:55;;;;;;;31.40;14.97;;;19.30;99.90;;;;;;5065615;28;20757;-73
2022/05/02 12:27:27;;;;;;;59.50;18.23;;;19.30;99.90;;;;;;5047685;28;20243;-73
2022/05/02 12:30:02;;;;;;;33.30;16.50;;;19.30;99.90;;;;;;5031045;28;20196;-73
2022/05/02 12:32:31;;;;;;;32.50;15.90;;;19.30;99.90;;;;;;5035570;28;20222;-72
2022/05/02 12:35:00;;;;;;;37.73;16.47;;;19.30;99.90;;;;;;5028330;28;20219;-72
2022/05/02 12:37:42;;;;;;;34.93;15.80;;;19.20;99.90;;;;;;5031885;28;20184;-71
2022/05/02 12:40:11;;;;;;;28.77;14.23;;;19.20;99.90;;;;;;5031362;28;20199;-72
2022/05/02 12:42:51;;;;;;;28.00;14.90;;;19.20;99.90;;;;;;5061295;28;20192;-72
2022/05/02 12:45:23;;;;;;;32.03;15.23;;;19.20;99.90;;;;;;5031220;28;20180;-71
2022/05/02 12:48:10;;;;;;;22.20;14.13;;;19.20;99.90;;;;;;5029316;28;20207;-71
2022/05/02 12:50:51;;;;;;;24.33;13.90;;;19.10;99.90;;;;;;5060882;28;20196;-72
2022/05/02 12:56:14;;;;;;;31.70;14.80;;;19.00;99.90;;;;;;5034842;28;20196;-72
2022/05/02 13:01:50;;;;;;;32.97;13.40;;;18.90;99.90;;;;;;5027579;28;20704;-73
2022/05/02 13:04:26;;;;;;;27.13;12.93;;;18.90;99.90;;;;;;5033637;28;20191;-74
2022/05/02 13:06:58;;;;;;;25.57;13.43;;;19.00;99.90;;;;;;5069893;28;20199;-74
2022/05/02 13:09:39;;;;;;;29.57;13.40;;;18.90;99.90;;;;;;5073509;28;20195;-73
2022/05/02 13:12:12;;;;;;;29.27;12.87;;;18.90;99.90;;;;;;5042752;28;20261;-74
2022/05/02 13:14:44;;;;;;;22.57;12.97;;;18.80;99.90;;;;;;5045753;28;20228;-74
2022/05/02 13:17:14;;;;;;;29.33;13.00;;;18.70;99.90;;;;;;5070508;28;20190;-75
2022/05/02 13:19:43;;;;;;;26.57;13.00;;;18.60;99.90;;;;;;5039714;28;20253;-74
2022/05/02 13:22:10;;;;;;;28.10;12.73;;;18.60;99.90;;;;;;5043779;28;20278;-73
2022/05/02 13:24:52;;;;;;;27.13;11.83;;;18.60;99.90;;;;;;5041269;28;20207;-73
2022/05/02 13:27:45;;;;;;;22.43;11.80;;;18.60;99.90;;;;;;5005553;28;20687;-73
2022/05/02 13:30:20;;;;;;;25.73;11.33;;;18.50;99.90;;;;;;5026757;28;20283;-73
2022/05/02 13:33:06;;;;;;;23.20;10.97;;;18.40;99.90;;;;;;5038434;28;20219;-73
2022/05/02 13:35:36;;;;;;;29.03;11.70;;;18.40;99.90;;;;;;5030396;28;20215;-73
2022/05/02 13:38:10;;;;;;;25.00;11.07;;;18.30;99.90;;;;;;5056405;28;20191;-73
2022/05/02 13:41:05;;;;;;;28.27;12.40;;;18.30;99.90;;;;;;5041367;28;20190;-72
2022/05/02 13:43:53;;;;;;;28.30;12.60;;;18.20;99.90;;;;;;5023221;28;20195;-73
2022/05/02 13:46:42;;;;;;;32.17;13.00;;;18.20;99.90;;;;;;5039290;28;20191;-72
2022/05/02 13:49:31;;;;;;;28.87;12.27;;;18.30;99.90;;;;;;5029713;28;20191;-74
2022/05/02 13:52:46;;;;;;;30.97;12.43;;;18.20;99.90;;;;;;5040998;28;20739;-72
2022/05/02 13:55:34;;;;;;;22.50;11.13;;;18.10;99.90;;;;;;5029565;28;20231;-73
2022/05/02 13:58:44;;;;;;;23.47;12.20;;;18.20;99.90;;;;;;5041463;28;20278;-73
2022/05/02 14:01:32;;;;;;;24.83;11.83;;;18.10;99.90;;;;;;5039600;28;20187;-73
2022/05/02 14:04:18;;;;;;;31.23;12.60;;;18.10;99.90;;;;;;5028625;28;20576;-72
2022/05/02 14:09:47;;;;;;;29.00;12.73;;;18.10;99.90;;;;;;5021941;28;20187;-73
2022/05/02 14:12:26;;;;;;;20.10;11.23;;;18.00;99.90;;;;;;5035653;28;20537;-72